SCBA/BBA METAR and TAF weather

Enter ICAO airport designator
Station Type Date Time Source
SCBA METAR 2021/08/04 23:00 UTC NOAA

SCBA 042300Z VRB02KT CAVOK 03/M04 Q1007


Station Type Date Time Source
SCBA Decoded METAR 2021/08/04 23:00 UTC NOAA

Balmaceda, Chile (SCBA) 45-55S 071-41W 520M
Aug 04, 2021 - 07:00 PM EDT / 2021.08.04 2300 UTC
Wind: Variable at 2 MPH (2 KT):0
Visibility: greater than 7 mile(s):0
Temperature: 37 F (3 C)
Dew Point: 24 F (-4 C)
Relative Humidity: 59%
Pressure (altimeter): 29.74 in. Hg (1007 hPa)
ob: SCBA 042300Z VRB02KT CAVOK 03/M04 Q1007
cycle: 23

Station Type Date Time Source
SCBA TAF 2021/08/04 18:03 UTC NOAA

TAF SCBA 041642Z 0418/0518 VRB02KT CAVOK TX09/0419Z TN01/0505Z
BECMG 0501/0503 28010KT
BECMG 0510/0512 30020G30KT SCT035 BKN045
TEMPO 0513/0516 31028G38KT BKN040 BKN060
BECMG 0516/0518 9999 -RA SCT035 BKN060

Example: see airport list